Time;durP1;ratioP1;P1;durP2;ratioP2;P2;SDS_P1;SDS_P2;PMS_P1;PMS_P2;Temp;Humidity;BMP_temperature;BMP_pressure;BME280_temperature;BME280_humidity;BME280_pressure;Samples;Min_cycle;Max_cycle;Signal;HPM_P1;HPM_P2
2021/12/22 00:02:14;;;;;;;1.25;0.70;;;-1.90;92.90;;;;;;4868390;29;20059;-82
2021/12/22 00:04:44;;;;;;;1.15;0.60;;;-1.90;92.90;;;;;;4898526;29;20048;-79
2021/12/22 00:07:12;;;;;;;1.40;0.70;;;-2.00;92.90;;;;;;4894902;29;20044;-85
2021/12/22 00:09:38;;;;;;;1.45;0.68;;;-2.00;92.90;;;;;;4871007;29;20283;-81
2021/12/22 00:12:08;;;;;;;1.60;0.82;;;-2.00;92.90;;;;;;4908756;29;20044;-85
2021/12/22 00:14:43;;;;;;;2.33;0.80;;;-2.00;92.90;;;;;;4896543;29;20024;-83
2021/12/22 00:17:23;;;;;;;1.58;0.80;;;-2.10;92.90;;;;;;4879421;29;20760;-82
2021/12/22 00:19:52;;;;;;;1.83;0.93;;;-2.00;92.90;;;;;;4807272;29;20525;-80
2021/12/22 00:22:18;;;;;;;1.50;0.70;;;-2.10;92.90;;;;;;4777826;29;20077;-81
2021/12/22 00:24:55;;;;;;;1.23;0.70;;;-2.10;92.90;;;;;;4804350;29;20042;-81
2021/12/22 00:27:21;;;;;;;1.65;0.80;;;-2.10;92.90;;;;;;4771145;30;20146;-79
2021/12/22 00:29:49;;;;;;;2.15;0.80;;;-2.10;92.90;;;;;;4772102;30;20040;-77
2021/12/22 00:32:16;;;;;;;1.60;0.70;;;-2.30;92.80;;;;;;4768236;30;20043;-78
2021/12/22 00:34:49;;;;;;;1.63;0.80;;;-2.10;92.90;;;;;;4767112;30;20143;-78
2021/12/22 00:37:18;;;;;;;1.23;0.68;;;-2.20;92.90;;;;;;4751199;30;20048;-77
2021/12/22 00:39:45;;;;;;;1.40;0.68;;;-2.10;92.90;;;;;;4766131;30;20880;-78
2021/12/22 00:42:12;;;;;;;1.38;0.90;;;-2.10;92.90;;;;;;4765461;30;20098;-78
2021/12/22 00:44:40;;;;;;;1.45;0.60;;;-2.20;92.90;;;;;;4808369;29;20081;-78
2021/12/22 00:47:06;;;;;;;1.58;0.65;;;-2.20;92.90;;;;;;4809507;29;20109;-78
2021/12/22 00:49:32;;;;;;;1.10;0.77;;;-2.20;92.90;;;;;;4872265;29;20109;-78
2021/12/22 00:51:57;;;;;;;1.60;0.50;;;-2.20;92.90;;;;;;4899156;29;20863;-78
2021/12/22 00:54:23;;;;;;;1.70;0.80;;;-2.20;92.90;;;;;;4932988;29;20032;-79
2021/12/22 00:56:49;;;;;;;3.05;0.60;;;-2.30;92.90;;;;;;4932804;29;20031;-79
2021/12/22 00:59:17;;;;;;;1.65;0.65;;;-2.30;92.90;;;;;;4914658;29;20044;-79
2021/12/22 01:01:43;;;;;;;1.85;0.80;;;-2.30;92.90;;;;;;4915214;29;20444;-79
2021/12/22 01:04:09;;;;;;;1.83;0.80;;;-2.30;92.90;;;;;;4932556;29;20032;-78
2021/12/22 01:06:35;;;;;;;1.77;0.82;;;-2.30;92.90;;;;;;4898550;29;20047;-78
2021/12/22 01:09:03;;;;;;;1.63;0.80;;;-2.30;92.90;;;;;;4882629;29;20084;-79
2021/12/22 01:11:29;;;;;;;1.98;0.90;;;-2.30;92.90;;;;;;4914669;29;20050;-79
2021/12/22 01:13:55;;;;;;;0.75;0.52;;;-2.30;92.90;;;;;;4899122;29;20414;-80
2021/12/22 01:16:21;;;;;;;1.40;0.70;;;-2.40;92.90;;;;;;4884322;29;20452;-79
2021/12/22 01:18:47;;;;;;;1.60;0.70;;;-2.40;92.90;;;;;;4900467;29;20490;-79
2021/12/22 01:21:21;;;;;;;1.60;0.90;;;-2.40;92.90;;;;;;4902339;29;20044;-81
2021/12/22 01:24:00;;;;;;;1.77;0.60;;;-2.40;92.90;;;;;;4917121;29;20490;-79
2021/12/22 01:26:30;;;;;;;1.42;0.70;;;-2.40;93.00;;;;;;4903765;29;20047;-79
2021/12/22 01:28:56;;;;;;;1.73;0.88;;;-2.40;93.00;;;;;;4919414;29;20071;-78
2021/12/22 01:31:22;;;;;;;1.42;0.70;;;-2.40;93.00;;;;;;4918955;29;20044;-79
2021/12/22 01:33:48;;;;;;;1.42;0.70;;;-2.40;92.90;;;;;;4902759;29;20060;-78
2021/12/22 01:36:14;;;;;;;0.77;0.50;;;-2.50;92.90;;;;;;4935777;29;20394;-79
2021/12/22 01:38:40;;;;;;;1.85;0.80;;;-2.50;93.00;;;;;;4902236;29;20041;-78
2021/12/22 01:41:05;;;;;;;1.83;0.90;;;-2.40;92.90;;;;;;4917579;29;20059;-78
2021/12/22 01:43:31;;;;;;;1.65;0.77;;;-2.50;92.90;;;;;;4916878;29;20115;-78
2021/12/22 01:51:18;;;;;;;1.42;0.80;;;-2.50;92.90;;;;;;4915706;29;20411;-79
2021/12/22 01:53:49;;;;;;;1.80;0.90;;;-2.50;92.90;;;;;;4898795;29;20443;-80
2021/12/22 01:56:23;;;;;;;0.73;0.52;;;-2.50;92.90;;;;;;4898866;29;20032;-78
2021/12/22 01:58:52;;;;;;;1.25;0.70;;;-2.60;92.90;;;;;;4931110;29;20055;-79
2021/12/22 02:01:19;;;;;;;1.17;0.52;;;-2.60;92.90;;;;;;4928945;29;20040;-79
2021/12/22 02:03:48;;;;;;;1.90;0.63;;;-2.60;92.90;;;;;;4912913;29;20104;-79
2021/12/22 02:06:15;;;;;;;1.90;0.70;;;-2.60;92.90;;;;;;4929834;29;20032;-79
2021/12/22 02:08:44;;;;;;;1.35;0.70;;;-2.70;93.00;;;;;;4930549;29;20091;-78
2021/12/22 02:11:10;;;;;;;2.50;1.10;;;-2.70;93.00;;;;;;4913226;29;20433;-79
2021/12/22 02:13:40;;;;;;;1.45;0.90;;;-2.70;93.00;;;;;;4912640;29;20048;-78
2021/12/22 02:16:10;;;;;;;1.20;0.70;;;-2.70;92.90;;;;;;4914570;29;20036;-79
2021/12/22 02:18:41;;;;;;;1.42;0.60;;;-2.70;93.00;;;;;;4931402;29;20035;-78
2021/12/22 02:21:07;;;;;;;1.60;0.80;;;-2.80;93.00;;;;;;4883267;29;20063;-79
2021/12/22 02:23:33;;;;;;;1.55;0.90;;;-2.80;93.00;;;;;;4897371;29;20324;-79
2021/12/22 02:26:09;;;;;;;1.77;0.85;;;-2.70;93.00;;;;;;4931903;29;20044;-79
2021/12/22 02:28:37;;;;;;;1.70;0.73;;;-2.80;93.00;;;;;;4897747;29;20040;-79
2021/12/22 02:31:03;;;;;;;1.73;0.80;;;-2.80;93.00;;;;;;4914438;29;20066;-79
2021/12/22 02:33:35;;;;;;;2.40;1.00;;;-2.80;93.00;;;;;;4912332;29;20066;-79
2021/12/22 02:36:10;;;;;;;2.15;1.08;;;-2.80;93.00;;;;;;4915080;29;20060;-78
2021/12/22 02:38:41;;;;;;;1.92;0.77;;;-2.90;93.00;;;;;;4930739;29;20032;-78
2021/12/22 02:41:11;;;;;;;1.65;0.80;;;-2.80;93.00;;;;;;4912367;29;20024;-78
2021/12/22 02:43:49;;;;;;;1.90;0.73;;;-2.90;93.00;;;;;;4899369;29;20557;-79
2021/12/22 02:46:16;;;;;;;0.70;0.60;;;-2.80;93.00;;;;;;4932627;29;20040;-79
2021/12/22 02:48:43;;;;;;;1.35;0.70;;;-2.90;93.00;;;;;;4898398;29;20052;-80
2021/12/22 02:51:09;;;;;;;1.75;0.93;;;-3.00;93.00;;;;;;4933456;29;20053;-79
2021/12/22 02:53:44;;;;;;;2.72;1.20;;;-3.00;93.00;;;;;;4931109;29;20067;-79
2021/12/22 02:59:05;;;;;;;2.38;1.00;;;-3.10;93.00;;;;;;4931178;29;20040;-79
2021/12/22 03:04:27;;;;;;;1.95;0.90;;;-3.10;93.00;;;;;;4888840;29;20139;-78
2021/12/22 03:06:59;;;;;;;1.90;1.00;;;-3.10;93.00;;;;;;4915087;29;20521;-78
2021/12/22 03:09:26;;;;;;;;;;;-3.10;93.00;;;;;;4897193;29;20128;-77
2021/12/22 03:11:53;;;;;;;1.52;0.70;;;-3.00;93.10;;;;;;4910161;29;19915;-78
2021/12/22 03:14:20;;;;;;;1.75;0.80;;;-3.10;93.00;;;;;;4906170;29;20051;-78
2021/12/22 03:16:46;;;;;;;1.02;0.60;;;-3.10;93.00;;;;;;4912159;29;20032;-78
2021/12/22 03:19:16;;;;;;;1.77;0.73;;;-3.10;93.00;;;;;;4907135;29;20044;-79
2021/12/22 03:21:43;;;;;;;2.47;1.00;;;-3.10;93.00;;;;;;4904999;29;20060;-78
2021/12/22 03:24:11;;;;;;;1.85;1.05;;;-3.20;93.00;;;;;;4906555;29;20080;-78
2021/12/22 03:26:41;;;;;;;0.93;0.57;;;-3.20;93.00;;;;;;4895632;29;20391;-78
2021/12/22 03:29:08;;;;;;;1.00;0.60;;;-3.20;93.00;;;;;;4926810;29;20040;-78
2021/12/22 03:31:34;;;;;;;1.67;0.80;;;-3.30;93.00;;;;;;4924654;29;20037;-78
2021/12/22 03:34:02;;;;;;;1.48;0.70;;;-3.20;93.10;;;;;;4892044;29;20464;-78
2021/12/22 03:36:28;;;;;;;0.93;0.60;;;-3.20;93.10;;;;;;4928130;29;20100;-78
2021/12/22 03:38:53;;;;;;;1.60;0.68;;;-3.20;93.10;;;;;;4910266;29;20505;-78
2021/12/22 03:41:19;;;;;;;1.67;0.80;;;-3.20;93.30;;;;;;4926448;29;20072;-78
2021/12/22 03:43:45;;;;;;;1.08;0.50;;;-3.30;93.00;;;;;;4893205;29;20052;-79
2021/12/22 03:46:11;;;;;;;1.13;0.60;;;-3.20;93.00;;;;;;4891416;29;20051;-79
2021/12/22 03:48:37;;;;;;;1.35;0.60;;;-3.20;93.00;;;;;;4905819;29;20048;-78
2021/12/22 03:51:03;;;;;;;1.73;0.80;;;-3.20;93.00;;;;;;4889994;29;20434;-78
2021/12/22 03:53:29;;;;;;;3.50;0.80;;;-3.20;93.00;;;;;;4890200;29;20044;-78
2021/12/22 03:55:55;;;;;;;1.73;1.10;;;-3.20;93.00;;;;;;4906250;29;20128;-78
2021/12/22 03:58:22;;;;;;;1.55;0.70;;;-3.20;93.00;;;;;;4923240;29;20376;-78
2021/12/22 04:00:51;;;;;;;2.22;0.95;;;-3.20;93.00;;;;;;4889009;29;20110;-78
2021/12/22 04:03:19;;;;;;;1.00;0.60;;;-3.30;93.00;;;;;;4921135;29;20047;-78
2021/12/22 04:05:46;;;;;;;1.50;0.70;;;-3.40;93.00;;;;;;4888534;29;20123;-78
2021/12/22 04:08:15;;;;;;;2.63;0.80;;;-3.30;93.00;;;;;;4920830;29;20036;-78
2021/12/22 04:10:41;;;;;;;1.48;0.60;;;-3.30;93.00;;;;;;4903081;29;20440;-78
2021/12/22 04:13:07;;;;;;;2.10;0.80;;;-3.30;93.00;;;;;;4902903;29;20044;-78
2021/12/22 04:15:34;;;;;;;1.73;0.77;;;-3.30;93.00;;;;;;4901971;29;20483;-78
2021/12/22 04:18:00;;;;;;;1.30;0.70;;;-3.20;93.00;;;;;;4902203;29;20133;-78
2021/12/22 04:20:28;;;;;;;1.73;0.80;;;-3.20;93.00;;;;;;4886676;29;20040;-78
2021/12/22 04:22:54;;;;;;;1.65;0.70;;;-3.30;92.90;;;;;;4919908;29;20121;-78
2021/12/22 04:25:21;;;;;;;1.20;0.70;;;-3.10;93.00;;;;;;4901425;29;20450;-78
2021/12/22 04:27:50;;;;;;;2.78;0.80;;;-3.20;93.00;;;;;;4886447;29;20486;-78
2021/12/22 04:30:17;;;;;;;2.40;0.65;;;-3.20;93.00;;;;;;4885148;29;20041;-78
2021/12/22 04:32:42;;;;;;;2.15;0.80;;;-3.20;93.00;;;;;;4900773;29;20040;-78
2021/12/22 04:35:08;;;;;;;1.95;0.60;;;-3.20;93.00;;;;;;4885756;29;20036;-78
2021/12/22 04:37:34;;;;;;;2.55;0.88;;;-3.20;92.90;;;;;;4889621;29;20446;-78
2021/12/22 04:40:00;;;;;;;1.35;0.70;;;-3.30;92.90;;;;;;4874887;29;20052;-78
2021/12/22 04:42:26;;;;;;;1.98;1.00;;;-3.20;92.90;;;;;;4905771;29;20032;-78
2021/12/22 04:44:54;;;;;;;1.02;0.50;;;-3.20;93.00;;;;;;4890272;29;20053;-78
2021/12/22 04:47:20;;;;;;;1.05;0.47;;;-3.20;93.00;;;;;;4889955;29;20449;-79
2021/12/22 04:49:46;;;;;;;1.83;0.70;;;-3.20;93.00;;;;;;4924500;29;20091;-78
2021/12/22 04:52:19;;;;;;;1.63;0.60;;;-3.20;93.00;;;;;;4908551;29;20071;-78
2021/12/22 04:55:02;;;;;;;1.85;0.63;;;-3.20;93.20;;;;;;4895722;29;20040;-78
2021/12/22 04:57:28;;;;;;;4.15;0.90;;;-3.20;92.90;;;;;;4925718;29;20032;-78
2021/12/22 04:59:54;;;;;;;1.73;0.70;;;-3.20;92.90;;;;;;4908397;29;20039;-78
2021/12/22 05:02:20;;;;;;;3.15;0.70;;;-3.30;92.90;;;;;;4878681;29;20040;-78
2021/12/22 05:04:46;;;;;;;1.98;0.88;;;-3.30;92.90;;;;;;4911073;29;20513;-78
2021/12/22 05:07:11;;;;;;;2.00;0.70;;;-3.30;92.90;;;;;;4894801;29;20033;-78
2021/12/22 05:09:37;;;;;;;2.15;0.85;;;-3.30;92.90;;;;;;4897408;29;20039;-78
2021/12/22 05:12:03;;;;;;;1.30;0.73;;;-3.30;93.00;;;;;;4909620;29;20048;-78
2021/12/22 05:14:29;;;;;;;2.22;0.70;;;-3.30;93.00;;;;;;4876509;29;20104;-78
2021/12/22 05:17:00;;;;;;;1.40;0.55;;;-3.30;93.00;;;;;;4924321;29;20491;-78
2021/12/22 05:19:26;;;;;;;1.77;0.77;;;-3.30;93.00;;;;;;4893618;29;20502;-78
2021/12/22 05:21:52;;;;;;;2.03;0.90;;;-3.30;92.90;;;;;;4890620;29;20514;-78
2021/12/22 05:24:17;;;;;;;1.13;0.80;;;-3.30;92.90;;;;;;4923825;29;20202;-78
2021/12/22 05:26:43;;;;;;;1.70;0.50;;;-3.30;92.90;;;;;;4891471;29;20135;-78
2021/12/22 05:29:11;;;;;;;1.08;0.50;;;-3.30;92.90;;;;;;4908098;29;20037;-78
2021/12/22 05:31:38;;;;;;;1.45;0.70;;;-3.40;92.90;;;;;;4908003;29;20055;-78
2021/12/22 05:34:04;;;;;;;1.10;0.50;;;-3.40;93.00;;;;;;4924523;29;20036;-78
2021/12/22 05:36:29;;;;;;;1.60;0.52;;;-3.40;93.00;;;;;;4925515;29;20427;-78
2021/12/22 05:38:55;;;;;;;1.20;0.50;;;-3.40;93.00;;;;;;4908938;29;20040;-78
2021/12/22 05:41:23;;;;;;;1.13;0.63;;;-3.50;93.00;;;;;;4908311;29;20043;-78
2021/12/22 05:43:49;;;;;;;1.60;0.60;;;-3.50;93.00;;;;;;4926456;29;20065;-78
2021/12/22 05:46:15;;;;;;;2.63;0.73;;;-3.50;93.00;;;;;;4892029;29;20036;-79
2021/12/22 05:48:41;;;;;;;2.05;0.77;;;-3.50;93.00;;;;;;4925930;29;20055;-78
2021/12/22 05:51:07;;;;;;;0.73;0.50;;;-3.40;93.00;;;;;;4909764;29;20043;-78
2021/12/22 05:53:33;;;;;;;2.10;0.60;;;-3.50;93.00;;;;;;4927677;29;20044;-78
2021/12/22 05:55:59;;;;;;;2.13;0.82;;;-3.50;93.00;;;;;;4908410;29;20067;-78
2021/12/22 05:58:26;;;;;;;1.45;0.65;;;-3.50;93.00;;;;;;4908481;29;20099;-78
2021/12/22 06:00:51;;;;;;;1.65;0.50;;;-3.50;93.00;;;;;;4926800;29;20044;-78
2021/12/22 06:03:17;;;;;;;1.75;0.60;;;-3.50;93.00;;;;;;4893728;29;20415;-78
2021/12/22 06:05:43;;;;;;;0.60;0.40;;;-3.50;93.00;;;;;;4894153;29;20041;-78
2021/12/22 06:08:09;;;;;;;1.55;0.60;;;-3.50;93.00;;;;;;4907882;29;20052;-78
2021/12/22 06:10:35;;;;;;;1.10;0.50;;;-3.60;92.90;;;;;;4907488;29;20047;-78
2021/12/22 06:13:05;;;;;;;1.45;0.60;;;-3.60;92.90;;;;;;4912944;29;20040;-78
2021/12/22 06:15:33;;;;;;;1.52;0.60;;;-3.50;93.00;;;;;;4913824;29;20088;-78
2021/12/22 06:18:01;;;;;;;2.10;0.90;;;-3.50;93.00;;;;;;4913449;29;20032;-77
2021/12/22 06:20:28;;;;;;;1.88;0.80;;;-3.60;92.90;;;;;;4897664;29;20043;-78
2021/12/22 06:22:54;;;;;;;2.15;0.90;;;-3.60;92.90;;;;;;4895045;29;20044;-78
2021/12/22 06:25:20;;;;;;;2.78;0.60;;;-3.60;92.90;;;;;;4927936;29;20108;-78
2021/12/22 06:27:46;;;;;;;1.05;0.60;;;-3.60;92.90;;;;;;4927253;29;20510;-78
2021/12/22 06:30:12;;;;;;;2.25;0.80;;;-3.60;92.90;;;;;;4924561;29;20040;-78
2021/12/22 06:32:38;;;;;;;1.65;0.80;;;-3.70;92.90;;;;;;4890825;29;20054;-78
2021/12/22 06:35:05;;;;;;;1.63;0.75;;;-3.60;93.00;;;;;;4911343;29;20107;-78
2021/12/22 06:37:31;;;;;;;1.27;0.57;;;-3.60;93.00;;;;;;4895434;29;20040;-79
2021/12/22 06:39:57;;;;;;;1.23;0.70;;;-3.60;93.00;;;;;;4909747;29;20843;-79
2021/12/22 06:42:23;;;;;;;0.98;0.60;;;-3.70;93.00;;;;;;4911528;29;20048;-78
2021/12/22 06:44:49;;;;;;;2.25;0.77;;;-3.70;92.90;;;;;;4892654;29;20055;-78
2021/12/22 06:47:15;;;;;;;0.60;0.50;;;-3.70;93.00;;;;;;4929453;29;20036;-79
2021/12/22 06:49:41;;;;;;;2.58;0.88;;;-3.70;93.00;;;;;;4927619;29;20040;-78
2021/12/22 06:52:07;;;;;;;1.60;0.80;;;-3.70;93.00;;;;;;4895573;29;20056;-75
2021/12/22 06:54:33;;;;;;;1.67;0.85;;;-3.70;93.00;;;;;;4891825;29;20044;-77
2021/12/22 06:56:58;;;;;;;1.60;0.60;;;-3.80;93.00;;;;;;4927331;29;20862;-77
2021/12/22 06:59:24;;;;;;;2.20;0.75;;;-3.80;93.00;;;;;;4927301;29;20040;-77
2021/12/22 07:01:51;;;;;;;1.52;0.82;;;-3.80;93.00;;;;;;4926373;29;20051;-77
2021/12/22 07:04:19;;;;;;;2.05;1.05;;;-3.80;93.00;;;;;;4924550;29;20044;-78
2021/12/22 07:06:45;;;;;;;3.17;1.02;;;-3.80;93.00;;;;;;4877532;29;20830;-78
2021/12/22 07:09:11;;;;;;;1.95;0.75;;;-3.90;93.00;;;;;;4924099;29;20532;-78
2021/12/22 07:11:38;;;;;;;3.10;0.80;;;-3.80;93.00;;;;;;4927199;29;20902;-78
2021/12/22 07:14:07;;;;;;;1.90;0.80;;;-3.90;93.00;;;;;;4908862;29;20044;-78
2021/12/22 07:16:33;;;;;;;2.35;1.08;;;-3.90;93.00;;;;;;4922805;29;20040;-78
2021/12/22 07:18:59;;;;;;;2.08;0.75;;;-3.90;93.00;;;;;;4924008;29;20056;-78
2021/12/22 07:21:26;;;;;;;1.55;0.80;;;-4.00;93.00;;;;;;4923703;29;20036;-78
2021/12/22 07:23:52;;;;;;;1.63;0.65;;;-3.90;93.00;;;;;;4923741;29;20032;-77
2021/12/22 07:26:18;;;;;;;1.38;0.65;;;-3.90;93.00;;;;;;4905125;29;20044;-77
2021/12/22 07:28:46;;;;;;;1.77;0.70;;;-4.00;93.00;;;;;;4920214;29;20402;-77
2021/12/22 07:31:14;;;;;;;1.30;0.60;;;-3.90;93.00;;;;;;4901741;29;20044;-76
2021/12/22 07:33:59;;;;;;;2.20;0.80;;;-4.00;93.00;;;;;;4875847;29;20075;-77
2021/12/22 07:36:25;;;;;;;3.13;0.82;;;-4.00;93.00;;;;;;4910500;29;20052;-77
2021/12/22 07:38:57;;;;;;;2.25;0.80;;;-4.00;93.00;;;;;;4931728;29;20392;-77
2021/12/22 07:41:23;;;;;;;1.85;0.60;;;-3.90;93.00;;;;;;4931278;29;20119;-77
2021/12/22 07:43:49;;;;;;;1.45;0.90;;;-3.90;93.00;;;;;;4910856;29;20040;-77
2021/12/22 07:46:15;;;;;;;1.85;0.75;;;-3.90;92.90;;;;;;4911079;29;20068;-78
2021/12/22 07:48:41;;;;;;;1.17;0.60;;;-4.00;92.90;;;;;;4879113;29;20150;-77
2021/12/22 07:51:07;;;;;;;2.15;1.00;;;-3.90;92.90;;;;;;4927445;29;20526;-77
2021/12/22 07:53:33;;;;;;;2.05;0.60;;;-4.00;93.20;;;;;;4907965;29;20498;-76
2021/12/22 07:55:59;;;;;;;1.08;0.77;;;-4.00;92.90;;;;;;4918429;29;20036;-76
2021/12/22 07:58:26;;;;;;;1.85;0.60;;;-4.00;92.90;;;;;;4900790;29;20394;-77
2021/12/22 08:00:54;;;;;;;0.98;0.65;;;-4.00;92.90;;;;;;4918090;29;20390;-77
2021/12/22 08:03:21;;;;;;;1.33;0.57;;;-3.90;92.90;;;;;;4919635;29;20128;-77
2021/12/22 08:05:47;;;;;;;2.10;0.70;;;-3.90;92.90;;;;;;4887730;29;20040;-77
2021/12/22 08:08:13;;;;;;;1.15;0.60;;;-3.90;92.90;;;;;;4887891;29;20044;-77
2021/12/22 08:10:41;;;;;;;1.67;0.70;;;-3.90;92.90;;;;;;4922228;29;20103;-77
2021/12/22 08:13:08;;;;;;;0.80;0.50;;;-3.90;92.90;;;;;;4897576;29;20111;-78
2021/12/22 08:15:33;;;;;;;1.25;0.57;;;-3.90;92.90;;;;;;4903010;29;20040;-78
2021/12/22 08:17:59;;;;;;;2.10;0.70;;;-3.90;92.80;;;;;;4903480;29;20024;-77
2021/12/22 08:20:25;;;;;;;2.13;0.70;;;-3.80;92.80;;;;;;4900943;29;20088;-78
2021/12/22 08:22:51;;;;;;;1.50;0.63;;;-3.80;92.80;;;;;;4934762;29;20494;-77
2021/12/22 08:25:18;;;;;;;1.30;0.43;;;-3.80;92.80;;;;;;4902760;29;20024;-78
2021/12/22 08:27:44;;;;;;;1.05;0.47;;;-3.70;92.80;;;;;;4918366;29;20071;-77
2021/12/22 08:30:11;;;;;;;1.25;0.50;;;-3.70;92.80;;;;;;4918136;29;20040;-78
2021/12/22 08:32:38;;;;;;;1.55;0.57;;;-3.70;92.80;;;;;;4934647;29;20506;-77
2021/12/22 08:35:06;;;;;;;1.55;0.63;;;-3.60;92.80;;;;;;4917102;29;20495;-78
2021/12/22 08:40:17;;;;;;;2.10;0.55;;;-3.50;92.70;;;;;;4919031;29;20060;-78
2021/12/22 08:42:44;;;;;;;1.65;0.70;;;-3.50;92.70;;;;;;4914345;29;20044;-78
2021/12/22 08:45:11;;;;;;;1.77;0.60;;;-3.50;92.70;;;;;;4882212;29;20036;-78
2021/12/22 08:47:37;;;;;;;2.28;0.80;;;-3.30;92.70;;;;;;4930165;29;20036;-78
2021/12/22 08:50:07;;;;;;;1.38;0.60;;;-3.30;92.60;;;;;;4916795;29;20077;-78
2021/12/22 08:52:33;;;;;;;1.95;0.52;;;-3.30;92.60;;;;;;4929938;29;20056;-78
2021/12/22 08:54:59;;;;;;;1.55;0.55;;;-3.20;92.60;;;;;;4935427;29;20051;-79
2021/12/22 08:57:27;;;;;;;0.98;0.68;;;-3.20;92.50;;;;;;4938801;29;20060;-79
2021/12/22 08:59:54;;;;;;;1.33;0.70;;;-3.20;92.50;;;;;;4919754;29;20044;-78
2021/12/22 09:02:20;;;;;;;2.42;0.80;;;-3.10;92.50;;;;;;4938813;29;20060;-78
2021/12/22 09:04:46;;;;;;;1.05;0.50;;;-3.10;92.50;;;;;;4922384;29;20050;-78
2021/12/22 09:07:12;;;;;;;1.30;0.63;;;-3.00;92.50;;;;;;4920773;29;20024;-79
2021/12/22 09:09:38;;;;;;;1.60;0.77;;;-2.90;92.50;;;;;;4938313;29;20052;-79
2021/12/22 09:12:06;;;;;;;0.95;0.52;;;-2.80;92.40;;;;;;4936935;29;20064;-79
2021/12/22 09:14:32;;;;;;;1.05;0.50;;;-2.80;92.40;;;;;;4906731;29;20035;-81
2021/12/22 09:16:57;;;;;;;1.33;0.50;;;-2.70;92.40;;;;;;4914811;29;20051;-81
2021/12/22 09:19:23;;;;;;;1.65;0.55;;;-2.70;92.30;;;;;;4917125;29;20387;-82
2021/12/22 09:21:51;;;;;;;1.38;0.60;;;-2.60;92.30;;;;;;4883683;29;20051;-81
2021/12/22 09:24:17;;;;;;;1.67;0.60;;;-2.60;92.30;;;;;;4883322;29;20062;-81
2021/12/22 09:26:43;;;;;;;0.93;0.60;;;-2.50;92.30;;;;;;4900360;29;20072;-81
2021/12/22 09:29:09;;;;;;;1.23;0.50;;;-2.50;92.20;;;;;;4919806;29;20048;-80
2021/12/22 09:31:35;;;;;;;1.52;0.70;;;-2.40;92.20;;;;;;4907192;29;20048;-81
2021/12/22 09:34:02;;;;;;;1.98;0.60;;;-2.30;92.20;;;;;;4887651;29;20037;-81
2021/12/22 09:36:28;;;;;;;1.60;0.68;;;-2.30;92.20;;;;;;4904880;29;20036;-81
2021/12/22 09:38:54;;;;;;;1.58;0.55;;;-2.20;92.20;;;;;;4888155;29;20037;-79
2021/12/22 09:41:20;;;;;;;1.55;0.60;;;-2.30;92.10;;;;;;4888383;29;20061;-77
2021/12/22 09:43:46;;;;;;;1.20;0.60;;;-2.10;92.20;;;;;;4918886;29;20676;-78
2021/12/22 09:46:16;;;;;;;2.03;0.57;;;-2.10;92.10;;;;;;4924267;29;20487;-79
2021/12/22 09:54:10;;;;;;;0.85;0.60;;;-1.70;92.20;;;;;;4890177;29;20048;-75
2021/12/22 09:56:39;;;;;;;1.40;0.55;;;-1.80;92.10;;;;;;4900395;29;20502;-76
2021/12/22 09:59:05;;;;;;;1.05;0.55;;;-1.90;92.00;;;;;;4921991;29;20059;-75
2021/12/22 10:01:31;;;;;;;0.90;0.50;;;-1.70;92.00;;;;;;4901846;29;20474;-75
2021/12/22 10:03:59;;;;;;;0.88;0.60;;;-1.70;92.00;;;;;;4885315;29;20036;-75
2021/12/22 10:06:26;;;;;;;1.85;0.95;;;-1.60;92.00;;;;;;4884602;29;20036;-75
2021/12/22 10:08:57;;;;;;;0.50;0.30;;;-1.60;92.00;;;;;;4900910;29;20048;-74
2021/12/22 10:11:23;;;;;;;1.02;0.50;;;-1.50;92.00;;;;;;4901506;29;20048;-76
2021/12/22 10:13:50;;;;;;;1.00;0.40;;;-1.50;92.00;;;;;;4917739;29;20121;-75
2021/12/22 10:16:19;;;;;;;0.70;0.40;;;-1.40;92.00;;;;;;4897823;29;20036;-75
2021/12/22 10:18:46;;;;;;;1.17;0.60;;;-1.30;91.90;;;;;;4916220;29;20096;-75
2021/12/22 10:21:18;;;;;;;0.68;0.40;;;-1.20;91.90;;;;;;4899489;29;20395;-75
2021/12/22 10:23:50;;;;;;;0.32;0.32;;;-1.20;91.90;;;;;;4899634;29;20040;-75
2021/12/22 10:26:19;;;;;;;1.42;0.70;;;-1.20;91.90;;;;;;4900850;29;20087;-76
2021/12/22 10:28:52;;;;;;;0.73;0.45;;;-1.10;91.90;;;;;;4899961;29;20104;-76
2021/12/22 10:31:21;;;;;;;0.73;0.50;;;-1.00;91.80;;;;;;4898699;29;20052;-75
2021/12/22 10:33:47;;;;;;;0.52;0.45;;;-0.90;91.80;;;;;;4918989;29;20122;-79
2021/12/22 10:36:17;;;;;;;1.27;0.60;;;-0.90;91.80;;;;;;4885849;29;20527;-77
2021/12/22 10:38:59;;;;;;;0.30;0.30;;;-0.80;91.80;;;;;;4883599;29;20036;-82
2021/12/22 10:41:29;;;;;;;0.77;0.60;;;-0.80;91.80;;;;;;4916385;29;20452;-80
2021/12/22 10:43:55;;;;;;;1.30;0.45;;;-0.50;92.10;;;;;;4903088;29;20044;-80
2021/12/22 10:46:26;;;;;;;0.90;0.50;;;-0.60;91.80;;;;;;4916627;29;20494;-81
2021/12/22 10:49:17;;;;;;;0.80;0.40;;;-0.60;91.80;;;;;;4919346;29;20110;-83
2021/12/22 10:51:58;;;;;;;0.50;0.50;;;-0.60;91.80;;;;;;4871953;29;20048;-77
2021/12/22 10:54:39;;;;;;;1.13;0.52;;;-0.50;91.80;;;;;;4883761;29;20028;-84
2021/12/22 11:01:12;;;;;;;1.25;0.45;;;-0.40;91.80;;;;;;4916262;29;20102;-82
2021/12/22 11:03:45;;;;;;;0.90;0.50;;;-0.30;91.70;;;;;;4899272;29;20087;-84
2021/12/22 11:09:29;;;;;;;0.97;0.53;;;-0.20;91.70;;;;;;4853783;29;20065;-83
2021/12/22 11:11:56;;;;;;;1.85;0.60;;;-0.10;91.70;;;;;;4827870;29;20649;-84
2021/12/22 11:14:27;;;;;;;1.05;0.57;;;-0.10;91.70;;;;;;4846880;29;20038;-82
2021/12/22 11:17:01;;;;;;;0.90;0.55;;;-0.10;91.70;;;;;;4843261;29;20041;-86
2021/12/22 11:19:32;;;;;;;1.35;0.73;;;-0.20;91.70;;;;;;4843634;29;20045;-80
2021/12/22 11:22:04;;;;;;;1.17;0.60;;;0.00;91.70;;;;;;4859554;29;20042;-81
2021/12/22 11:24:32;;;;;;;0.40;0.40;;;0.10;91.70;;;;;;4842770;29;20473;-81
2021/12/22 11:26:59;;;;;;;1.02;0.60;;;0.00;91.70;;;;;;4827484;29;20041;-81
2021/12/22 11:29:25;;;;;;;1.23;0.70;;;0.00;91.70;;;;;;4842159;29;20631;-80
2021/12/22 11:31:53;;;;;;;1.38;0.70;;;0.10;91.70;;;;;;4841715;29;20057;-80
2021/12/22 11:34:21;;;;;;;1.10;0.70;;;0.10;91.70;;;;;;4842335;29;20164;-79
2021/12/22 11:36:49;;;;;;;0.50;0.47;;;0.20;91.70;;;;;;4811726;29;20042;-79
2021/12/22 11:39:15;;;;;;;1.85;0.75;;;0.30;91.70;;;;;;4841062;29;20036;-81
2021/12/22 11:41:44;;;;;;;1.33;0.75;;;0.30;91.70;;;;;;4882113;29;20468;-80
2021/12/22 11:44:11;;;;;;;1.08;0.70;;;0.20;91.70;;;;;;4899332;29;20040;-79
2021/12/22 11:46:39;;;;;;;0.98;0.50;;;0.40;91.80;;;;;;4915585;29;20036;-79
2021/12/22 11:49:05;;;;;;;1.05;0.52;;;0.40;91.70;;;;;;4881032;29;20040;-78
2021/12/22 11:51:34;;;;;;;1.60;0.90;;;0.40;91.70;;;;;;4882591;29;20395;-79
2021/12/22 11:54:09;;;;;;;0.50;0.50;;;0.40;91.70;;;;;;4898386;29;20123;-81
2021/12/22 11:56:38;;;;;;;0.70;0.47;;;0.50;91.70;;;;;;4881794;29;20044;-76
2021/12/22 11:59:05;;;;;;;1.88;0.80;;;0.40;91.70;;;;;;4899591;29;20037;-75
2021/12/22 12:01:31;;;;;;;1.17;0.70;;;0.60;91.80;;;;;;4915464;29;20052;-76
2021/12/22 12:04:14;;;;;;;1.58;0.80;;;0.60;91.70;;;;;;4898216;29;20439;-76
2021/12/22 12:06:55;;;;;;;0.73;0.50;;;0.60;91.70;;;;;;4883124;29;20032;-76
2021/12/22 12:09:22;;;;;;;1.20;0.75;;;0.80;91.70;;;;;;4881802;29;20100;-75
2021/12/22 12:11:53;;;;;;;1.10;0.68;;;0.70;91.60;;;;;;4897546;29;20383;-75
2021/12/22 12:15:02;;;;;;;1.10;0.77;;;0.80;91.60;;;;;;4880667;29;20468;-75
2021/12/22 12:23:27;;;;;;;0.55;0.52;;;1.00;91.60;;;;;;4919410;29;20382;-80
2021/12/22 12:25:54;;;;;;;0.55;0.55;;;1.10;91.60;;;;;;4920947;29;20063;-80
2021/12/22 12:28:22;;;;;;;0.90;0.52;;;1.10;91.50;;;;;;4889907;29;20390;-78
2021/12/22 12:30:52;;;;;;;1.05;0.70;;;1.10;91.50;;;;;;4882555;29;20127;-76
2021/12/22 12:33:24;;;;;;;0.60;0.60;;;1.10;91.50;;;;;;4900955;29;20040;-78
2021/12/22 12:35:54;;;;;;;1.42;0.70;;;1.10;91.50;;;;;;4885063;29;20036;-81
2021/12/22 12:38:30;;;;;;;1.25;0.75;;;1.10;91.50;;;;;;4900182;29;20141;-84
2021/12/22 12:41:11;;;;;;;1.67;0.60;;;1.10;91.50;;;;;;4845116;29;20089;-85
2021/12/22 12:43:47;;;;;;;0.80;0.80;;;1.00;91.50;;;;;;4827268;29;20041;-81
2021/12/22 12:46:35;;;;;;;1.75;0.95;;;1.10;91.60;;;;;;4857373;29;20045;-85
2021/12/22 12:49:30;;;;;;;1.65;0.68;;;1.10;91.60;;;;;;4852969;29;20045;-81
2021/12/22 12:51:58;;;;;;;1.58;0.82;;;1.10;91.60;;;;;;4856828;29;20053;-80
2021/12/22 12:54:27;;;;;;;1.15;0.88;;;1.10;91.60;;;;;;4855543;29;20519;-81
2021/12/22 12:56:58;;;;;;;1.10;0.80;;;1.00;91.60;;;;;;4853209;29;20057;-82
2021/12/22 12:59:45;;;;;;;0.88;0.60;;;1.00;91.60;;;;;;4851379;29;20137;-83
2021/12/22 13:02:29;;;;;;;1.25;0.80;;;1.00;91.70;;;;;;4846789;29;20045;-79
2021/12/22 13:04:58;;;;;;;1.45;0.77;;;1.10;91.70;;;;;;4863610;29;20127;-82
2021/12/22 13:07:25;;;;;;;0.57;0.55;;;1.10;91.70;;;;;;4873775;29;20029;-82
2021/12/22 13:10:12;;;;;;;1.00;0.73;;;1.10;91.70;;;;;;4908809;29;20119;-82
2021/12/22 13:13:01;;;;;;;1.92;1.00;;;1.20;91.70;;;;;;4888255;29;20051;-82
2021/12/22 13:18:26;;;;;;;1.48;0.75;;;1.20;91.60;;;;;;4913623;29;20439;-80
2021/12/22 13:20:55;;;;;;;1.50;1.00;;;1.20;91.60;;;;;;4925897;29;20044;-83
2021/12/22 13:23:24;;;;;;;0.80;0.60;;;1.20;91.60;;;;;;4886342;29;20399;-82
2021/12/22 13:25:52;;;;;;;1.67;1.00;;;1.30;91.60;;;;;;4887414;29;20044;-82
2021/12/22 13:28:25;;;;;;;0.93;0.70;;;1.20;91.60;;;;;;4870259;29;20032;-79
2021/12/22 13:30:55;;;;;;;1.23;0.90;;;1.10;91.60;;;;;;4883332;29;20127;-79